sensor_id;sensor_type;location;lat;lon;timestamp;P1;durP1;ratioP1;P2;durP2;ratioP2
55913;SDS011;58179;48.776;9.124;2023-11-19T00:00:05;7.53;;;3.90;;
55913;SDS011;58179;48.776;9.124;2023-11-19T00:02:36;6.68;;;3.45;;
55913;SDS011;58179;48.776;9.124;2023-11-19T00:05:04;7.28;;;3.85;;
55913;SDS011;58179;48.776;9.124;2023-11-19T00:07:34;6.78;;;4.10;;
55913;SDS011;58179;48.776;9.124;2023-11-19T00:10:00;5.70;;;3.20;;
55913;SDS011;58179;48.776;9.124;2023-11-19T00:12:35;6.97;;;3.25;;
55913;SDS011;58179;48.776;9.124;2023-11-19T00:15:02;5.63;;;3.20;;
55913;SDS011;58179;48.776;9.124;2023-11-19T00:17:28;6.40;;;3.45;;
55913;SDS011;58179;48.776;9.124;2023-11-19T00:19:55;9.10;;;3.28;;
55913;SDS011;58179;48.776;9.124;2023-11-19T00:22:23;5.40;;;3.03;;
55913;SDS011;58179;48.776;9.124;2023-11-19T00:24:50;5.38;;;3.00;;
55913;SDS011;58179;48.776;9.124;2023-11-19T00:27:17;4.80;;;2.75;;
55913;SDS011;58179;48.776;9.124;2023-11-19T00:29:43;5.00;;;3.17;;
55913;SDS011;58179;48.776;9.124;2023-11-19T00:32:10;5.50;;;2.43;;
55913;SDS011;58179;48.776;9.124;2023-11-19T00:34:36;4.50;;;2.60;;
55913;SDS011;58179;48.776;9.124;2023-11-19T00:37:02;6.07;;;2.90;;
55913;SDS011;58179;48.776;9.124;2023-11-19T00:39:30;6.13;;;2.80;;
55913;SDS011;58179;48.776;9.124;2023-11-19T00:41:56;6.37;;;2.90;;
55913;SDS011;58179;48.776;9.124;2023-11-19T00:44:22;34.00;;;4.38;;
55913;SDS011;58179;48.776;9.124;2023-11-19T00:46:48;5.77;;;2.70;;
55913;SDS011;58179;48.776;9.124;2023-11-19T00:49:14;10.90;;;3.10;;
55913;SDS011;58179;48.776;9.124;2023-11-19T00:51:40;4.73;;;2.67;;
55913;SDS011;58179;48.776;9.124;2023-11-19T00:54:07;3.83;;;2.45;;
55913;SDS011;58179;48.776;9.124;2023-11-19T00:56:34;4.40;;;2.78;;
55913;SDS011;58179;48.776;9.124;2023-11-19T00:59:00;3.13;;;2.13;;
55913;SDS011;58179;48.776;9.124;2023-11-19T01:01:27;11.90;;;2.60;;
55913;SDS011;58179;48.776;9.124;2023-11-19T01:03:53;3.03;;;1.90;;
55913;SDS011;58179;48.776;9.124;2023-11-19T01:06:26;2.92;;;1.90;;
55913;SDS011;58179;48.776;9.124;2023-11-19T01:08:53;6.70;;;2.00;;
55913;SDS011;58179;48.776;9.124;2023-11-19T01:11:20;3.13;;;1.95;;
55913;SDS011;58179;48.776;9.124;2023-11-19T01:13:47;2.90;;;1.73;;
55913;SDS011;58179;48.776;9.124;2023-11-19T01:16:14;3.03;;;1.63;;
55913;SDS011;58179;48.776;9.124;2023-11-19T01:18:41;3.95;;;1.83;;
55913;SDS011;58179;48.776;9.124;2023-11-19T01:21:07;2.53;;;1.45;;
55913;SDS011;58179;48.776;9.124;2023-11-19T01:23:33;2.35;;;1.60;;
55913;SDS011;58179;48.776;9.124;2023-11-19T01:25:59;2.03;;;1.50;;
55913;SDS011;58179;48.776;9.124;2023-11-19T01:28:26;3.50;;;1.50;;
55913;SDS011;58179;48.776;9.124;2023-11-19T01:30:53;2.95;;;1.30;;
55913;SDS011;58179;48.776;9.124;2023-11-19T01:33:19;1.92;;;1.33;;
55913;SDS011;58179;48.776;9.124;2023-11-19T01:35:46;2.20;;;1.10;;
55913;SDS011;58179;48.776;9.124;2023-11-19T01:38:12;1.38;;;1.20;;
55913;SDS011;58179;48.776;9.124;2023-11-19T01:40:39;2.33;;;1.35;;
55913;SDS011;58179;48.776;9.124;2023-11-19T01:43:05;1.57;;;1.27;;
55913;SDS011;58179;48.776;9.124;2023-11-19T01:45:31;1.60;;;1.30;;
55913;SDS011;58179;48.776;9.124;2023-11-19T01:48:02;1.65;;;1.27;;
55913;SDS011;58179;48.776;9.124;2023-11-19T01:50:31;1.02;;;1.00;;
55913;SDS011;58179;48.776;9.124;2023-11-19T01:52:59;2.80;;;1.17;;
55913;SDS011;58179;48.776;9.124;2023-11-19T01:55:25;2.13;;;1.00;;
55913;SDS011;58179;48.776;9.124;2023-11-19T01:57:53;3.03;;;1.30;;
55913;SDS011;58179;48.776;9.124;2023-11-19T02:00:24;2.97;;;1.20;;
55913;SDS011;58179;48.776;9.124;2023-11-19T02:02:50;2.88;;;1.17;;
55913;SDS011;58179;48.776;9.124;2023-11-19T02:05:20;3.28;;;1.15;;
55913;SDS011;58179;48.776;9.124;2023-11-19T02:07:48;1.50;;;1.17;;
55913;SDS011;58179;48.776;9.124;2023-11-19T02:10:15;1.80;;;1.13;;
55913;SDS011;58179;48.776;9.124;2023-11-19T02:12:44;1.37;;;1.20;;
55913;SDS011;58179;48.776;9.124;2023-11-19T02:15:11;1.00;;;1.00;;
55913;SDS011;58179;48.776;9.124;2023-11-19T02:17:37;1.08;;;0.98;;
55913;SDS011;58179;48.776;9.124;2023-11-19T02:20:04;1.00;;;1.00;;
55913;SDS011;58179;48.776;9.124;2023-11-19T02:22:37;1.30;;;1.20;;
55913;SDS011;58179;48.776;9.124;2023-11-19T02:25:04;2.70;;;1.30;;
55913;SDS011;58179;48.776;9.124;2023-11-19T02:27:43;2.33;;;1.30;;
55913;SDS011;58179;48.776;9.124;2023-11-19T02:30:13;1.85;;;1.13;;
55913;SDS011;58179;48.776;9.124;2023-11-19T02:32:40;1.08;;;1.08;;
55913;SDS011;58179;48.776;9.124;2023-11-19T02:35:07;2.03;;;1.10;;
55913;SDS011;58179;48.776;9.124;2023-11-19T02:37:33;1.15;;;1.08;;
55913;SDS011;58179;48.776;9.124;2023-11-19T02:40:00;2.60;;;1.00;;
55913;SDS011;58179;48.776;9.124;2023-11-19T02:42:28;0.95;;;0.95;;
55913;SDS011;58179;48.776;9.124;2023-11-19T02:44:55;0.95;;;0.95;;
55913;SDS011;58179;48.776;9.124;2023-11-19T02:47:21;1.97;;;1.00;;
55913;SDS011;58179;48.776;9.124;2023-11-19T02:49:49;18.70;;;1.60;;
55913;SDS011;58179;48.776;9.124;2023-11-19T02:52:17;2.17;;;1.00;;
55913;SDS011;58179;48.776;9.124;2023-11-19T02:54:43;1.27;;;0.93;;
55913;SDS011;58179;48.776;9.124;2023-11-19T02:57:10;0.93;;;0.90;;
55913;SDS011;58179;48.776;9.124;2023-11-19T02:59:38;1.40;;;1.00;;
55913;SDS011;58179;48.776;9.124;2023-11-19T03:02:07;1.98;;;1.08;;
55913;SDS011;58179;48.776;9.124;2023-11-19T03:04:37;1.10;;;0.85;;
55913;SDS011;58179;48.776;9.124;2023-11-19T03:07:07;4.57;;;1.00;;
55913;SDS011;58179;48.776;9.124;2023-11-19T03:09:34;1.90;;;0.90;;
55913;SDS011;58179;48.776;9.124;2023-11-19T03:12:00;1.40;;;0.82;;
55913;SDS011;58179;48.776;9.124;2023-11-19T03:14:26;0.80;;;0.80;;
55913;SDS011;58179;48.776;9.124;2023-11-19T03:16:52;1.90;;;1.00;;
55913;SDS011;58179;48.776;9.124;2023-11-19T03:19:20;1.20;;;1.00;;
55913;SDS011;58179;48.776;9.124;2023-11-19T03:21:46;1.00;;;1.00;;
55913;SDS011;58179;48.776;9.124;2023-11-19T03:24:13;1.80;;;0.82;;
55913;SDS011;58179;48.776;9.124;2023-11-19T03:26:40;1.38;;;1.10;;
55913;SDS011;58179;48.776;9.124;2023-11-19T03:29:07;1.00;;;0.80;;
55913;SDS011;58179;48.776;9.124;2023-11-19T03:31:34;1.02;;;1.02;;
55913;SDS011;58179;48.776;9.124;2023-11-19T03:34:00;6.27;;;1.60;;
55913;SDS011;58179;48.776;9.124;2023-11-19T03:36:32;1.38;;;1.10;;
55913;SDS011;58179;48.776;9.124;2023-11-19T03:38:58;4.72;;;1.30;;
55913;SDS011;58179;48.776;9.124;2023-11-19T03:41:25;1.40;;;1.10;;
55913;SDS011;58179;48.776;9.124;2023-11-19T03:43:51;1.30;;;1.00;;
55913;SDS011;58179;48.776;9.124;2023-11-19T03:46:18;4.10;;;1.02;;
55913;SDS011;58179;48.776;9.124;2023-11-19T03:48:44;0.90;;;0.90;;
55913;SDS011;58179;48.776;9.124;2023-11-19T03:51:11;1.40;;;1.00;;
55913;SDS011;58179;48.776;9.124;2023-11-19T03:53:41;1.00;;;0.90;;
55913;SDS011;58179;48.776;9.124;2023-11-19T03:56:08;2.05;;;1.50;;
55913;SDS011;58179;48.776;9.124;2023-11-19T03:58:35;1.13;;;1.02;;
55913;SDS011;58179;48.776;9.124;2023-11-19T04:01:01;0.90;;;0.90;;
55913;SDS011;58179;48.776;9.124;2023-11-19T04:03:27;0.95;;;0.95;;
55913;SDS011;58179;48.776;9.124;2023-11-19T04:05:53;1.10;;;0.90;;
55913;SDS011;58179;48.776;9.124;2023-11-19T04:08:19;1.10;;;1.00;;
55913;SDS011;58179;48.776;9.124;2023-11-19T04:10:47;0.90;;;0.90;;
55913;SDS011;58179;48.776;9.124;2023-11-19T04:13:13;1.33;;;0.85;;
55913;SDS011;58179;48.776;9.124;2023-11-19T04:15:39;1.38;;;0.85;;
55913;SDS011;58179;48.776;9.124;2023-11-19T04:18:06;1.20;;;1.00;;
55913;SDS011;58179;48.776;9.124;2023-11-19T04:20:32;0.80;;;0.80;;
55913;SDS011;58179;48.776;9.124;2023-11-19T04:22:58;1.23;;;1.00;;
55913;SDS011;58179;48.776;9.124;2023-11-19T04:25:25;1.50;;;0.90;;
55913;SDS011;58179;48.776;9.124;2023-11-19T04:27:53;1.20;;;1.00;;
55913;SDS011;58179;48.776;9.124;2023-11-19T04:30:19;1.00;;;1.00;;
55913;SDS011;58179;48.776;9.124;2023-11-19T04:32:46;0.93;;;0.90;;
55913;SDS011;58179;48.776;9.124;2023-11-19T04:35:13;0.93;;;0.90;;
55913;SDS011;58179;48.776;9.124;2023-11-19T04:37:41;1.10;;;1.00;;
55913;SDS011;58179;48.776;9.124;2023-11-19T04:40:07;0.80;;;0.80;;
55913;SDS011;58179;48.776;9.124;2023-11-19T04:42:34;1.00;;;0.93;;
55913;SDS011;58179;48.776;9.124;2023-11-19T04:45:02;1.17;;;1.00;;
55913;SDS011;58179;48.776;9.124;2023-11-19T04:47:31;1.10;;;1.00;;
55913;SDS011;58179;48.776;9.124;2023-11-19T04:49:57;0.90;;;0.90;;
55913;SDS011;58179;48.776;9.124;2023-11-19T04:52:24;1.02;;;0.90;;
55913;SDS011;58179;48.776;9.124;2023-11-19T04:54:50;0.80;;;0.80;;
55913;SDS011;58179;48.776;9.124;2023-11-19T04:57:16;1.00;;;1.00;;
55913;SDS011;58179;48.776;9.124;2023-11-19T04:59:42;2.00;;;1.20;;
55913;SDS011;58179;48.776;9.124;2023-11-19T05:02:10;17.90;;;1.50;;
55913;SDS011;58179;48.776;9.124;2023-11-19T05:04:36;1.23;;;0.85;;
55913;SDS011;58179;48.776;9.124;2023-11-19T05:07:07;1.30;;;0.90;;
55913;SDS011;58179;48.776;9.124;2023-11-19T05:09:33;0.70;;;0.70;;
55913;SDS011;58179;48.776;9.124;2023-11-19T05:12:00;1.87;;;1.10;;
55913;SDS011;58179;48.776;9.124;2023-11-19T05:14:26;4.05;;;1.00;;
55913;SDS011;58179;48.776;9.124;2023-11-19T05:16:53;3.55;;;0.93;;
55913;SDS011;58179;48.776;9.124;2023-11-19T05:19:20;2.60;;;0.90;;
55913;SDS011;58179;48.776;9.124;2023-11-19T05:21:46;1.77;;;0.80;;
55913;SDS011;58179;48.776;9.124;2023-11-19T05:24:12;1.00;;;0.98;;
55913;SDS011;58179;48.776;9.124;2023-11-19T05:26:39;2.07;;;0.80;;
55913;SDS011;58179;48.776;9.124;2023-11-19T05:29:05;0.88;;;0.88;;
55913;SDS011;58179;48.776;9.124;2023-11-19T05:31:31;1.50;;;0.80;;
55913;SDS011;58179;48.776;9.124;2023-11-19T05:33:57;0.80;;;0.80;;
55913;SDS011;58179;48.776;9.124;2023-11-19T05:36:25;0.82;;;0.80;;
55913;SDS011;58179;48.776;9.124;2023-11-19T05:38:53;1.48;;;0.82;;
55913;SDS011;58179;48.776;9.124;2023-11-19T05:41:20;1.05;;;0.80;;
55913;SDS011;58179;48.776;9.124;2023-11-19T05:43:46;1.70;;;0.90;;
55913;SDS011;58179;48.776;9.124;2023-11-19T05:46:12;0.80;;;0.80;;
55913;SDS011;58179;48.776;9.124;2023-11-19T05:48:38;0.80;;;0.80;;
55913;SDS011;58179;48.776;9.124;2023-11-19T05:51:04;0.85;;;0.80;;
55913;SDS011;58179;48.776;9.124;2023-11-19T05:53:32;2.30;;;0.90;;
55913;SDS011;58179;48.776;9.124;2023-11-19T05:55:59;2.03;;;0.90;;
55913;SDS011;58179;48.776;9.124;2023-11-19T05:58:29;1.00;;;0.90;;
55913;SDS011;58179;48.776;9.124;2023-11-19T06:00:55;1.60;;;0.80;;
55913;SDS011;58179;48.776;9.124;2023-11-19T06:03:22;2.00;;;0.90;;
55913;SDS011;58179;48.776;9.124;2023-11-19T06:05:48;2.25;;;1.05;;
55913;SDS011;58179;48.776;9.124;2023-11-19T06:08:15;0.95;;;0.80;;
55913;SDS011;58179;48.776;9.124;2023-11-19T06:10:43;0.90;;;0.90;;
55913;SDS011;58179;48.776;9.124;2023-11-19T06:13:11;1.10;;;1.00;;
55913;SDS011;58179;48.776;9.124;2023-11-19T06:15:40;1.05;;;1.02;;
55913;SDS011;58179;48.776;9.124;2023-11-19T06:18:06;0.90;;;0.90;;
55913;SDS011;58179;48.776;9.124;2023-11-19T06:20:33;0.90;;;0.90;;
55913;SDS011;58179;48.776;9.124;2023-11-19T06:22:59;0.90;;;0.90;;
55913;SDS011;58179;48.776;9.124;2023-11-19T06:25:25;0.90;;;0.90;;
55913;SDS011;58179;48.776;9.124;2023-11-19T06:27:54;0.90;;;0.90;;
55913;SDS011;58179;48.776;9.124;2023-11-19T06:30:21;0.80;;;0.80;;
55913;SDS011;58179;48.776;9.124;2023-11-19T06:32:48;2.50;;;0.82;;
55913;SDS011;58179;48.776;9.124;2023-11-19T06:35:14;0.70;;;0.70;;
55913;SDS011;58179;48.776;9.124;2023-11-19T06:37:40;2.30;;;0.90;;
55913;SDS011;58179;48.776;9.124;2023-11-19T06:40:07;1.08;;;0.98;;
55913;SDS011;58179;48.776;9.124;2023-11-19T06:42:34;0.80;;;0.80;;
55913;SDS011;58179;48.776;9.124;2023-11-19T06:45:02;1.00;;;0.90;;
55913;SDS011;58179;48.776;9.124;2023-11-19T06:47:28;1.60;;;0.90;;
55913;SDS011;58179;48.776;9.124;2023-11-19T06:49:55;0.98;;;0.98;;
55913;SDS011;58179;48.776;9.124;2023-11-19T06:52:21;0.90;;;0.90;;
55913;SDS011;58179;48.776;9.124;2023-11-19T06:54:47;1.08;;;1.00;;
55913;SDS011;58179;48.776;9.124;2023-11-19T06:57:13;1.35;;;0.90;;
55913;SDS011;58179;48.776;9.124;2023-11-19T06:59:39;2.30;;;0.90;;
55913;SDS011;58179;48.776;9.124;2023-11-19T07:02:07;1.92;;;0.90;;
55913;SDS011;58179;48.776;9.124;2023-11-19T07:04:34;1.10;;;0.95;;
55913;SDS011;58179;48.776;9.124;2023-11-19T07:07:00;1.00;;;1.00;;
55913;SDS011;58179;48.776;9.124;2023-11-19T07:09:26;1.00;;;0.90;;
55913;SDS011;58179;48.776;9.124;2023-11-19T07:11:52;1.02;;;0.95;;
55913;SDS011;58179;48.776;9.124;2023-11-19T07:14:19;1.73;;;1.02;;
55913;SDS011;58179;48.776;9.124;2023-11-19T07:16:45;1.10;;;0.85;;
55913;SDS011;58179;48.776;9.124;2023-11-19T07:19:13;0.80;;;0.80;;
55913;SDS011;58179;48.776;9.124;2023-11-19T07:21:40;1.90;;;1.05;;
55913;SDS011;58179;48.776;9.124;2023-11-19T07:24:09;2.77;;;1.10;;
55913;SDS011;58179;48.776;9.124;2023-11-19T07:26:35;0.80;;;0.80;;
55913;SDS011;58179;48.776;9.124;2023-11-19T07:29:05;1.53;;;1.10;;
55913;SDS011;58179;48.776;9.124;2023-11-19T07:31:32;0.98;;;0.90;;
55913;SDS011;58179;48.776;9.124;2023-11-19T07:33:58;2.37;;;0.83;;
55913;SDS011;58179;48.776;9.124;2023-11-19T07:36:26;3.90;;;1.00;;
55913;SDS011;58179;48.776;9.124;2023-11-19T07:38:52;2.25;;;1.00;;
55913;SDS011;58179;48.776;9.124;2023-11-19T07:41:18;2.63;;;1.00;;
55913;SDS011;58179;48.776;9.124;2023-11-19T07:43:45;0.90;;;0.90;;
55913;SDS011;58179;48.776;9.124;2023-11-19T07:46:11;0.80;;;0.80;;
55913;SDS011;58179;48.776;9.124;2023-11-19T07:48:38;0.90;;;0.90;;
55913;SDS011;58179;48.776;9.124;2023-11-19T07:51:05;0.90;;;0.90;;
55913;SDS011;58179;48.776;9.124;2023-11-19T07:53:32;0.90;;;0.90;;
55913;SDS011;58179;48.776;9.124;2023-11-19T07:55:58;0.85;;;0.85;;
55913;SDS011;58179;48.776;9.124;2023-11-19T07:58:24;2.50;;;0.90;;
55913;SDS011;58179;48.776;9.124;2023-11-19T08:00:51;1.50;;;0.90;;
55913;SDS011;58179;48.776;9.124;2023-11-19T08:03:17;1.35;;;0.80;;
55913;SDS011;58179;48.776;9.124;2023-11-19T08:05:49;0.98;;;0.80;;
55913;SDS011;58179;48.776;9.124;2023-11-19T08:08:15;1.10;;;0.90;;
55913;SDS011;58179;48.776;9.124;2023-11-19T08:10:43;1.17;;;0.82;;
55913;SDS011;58179;48.776;9.124;2023-11-19T08:13:09;0.80;;;0.80;;
55913;SDS011;58179;48.776;9.124;2023-11-19T08:15:35;1.00;;;0.80;;
55913;SDS011;58179;48.776;9.124;2023-11-19T08:18:02;1.60;;;0.95;;
55913;SDS011;58179;48.776;9.124;2023-11-19T08:20:28;1.30;;;0.90;;
55913;SDS011;58179;48.776;9.124;2023-11-19T08:22:54;3.03;;;0.82;;
55913;SDS011;58179;48.776;9.124;2023-11-19T08:25:20;0.90;;;0.90;;
55913;SDS011;58179;48.776;9.124;2023-11-19T08:27:47;0.80;;;0.80;;
55913;SDS011;58179;48.776;9.124;2023-11-19T08:30:14;0.70;;;0.70;;
55913;SDS011;58179;48.776;9.124;2023-11-19T08:32:40;2.00;;;0.90;;
55913;SDS011;58179;48.776;9.124;2023-11-19T08:35:07;0.70;;;0.70;;
55913;SDS011;58179;48.776;9.124;2023-11-19T08:37:33;1.00;;;0.90;;
55913;SDS011;58179;48.776;9.124;2023-11-19T08:40:01;0.93;;;0.80;;
55913;SDS011;58179;48.776;9.124;2023-11-19T08:42:29;1.25;;;0.93;;
55913;SDS011;58179;48.776;9.124;2023-11-19T08:44:57;1.15;;;0.80;;
55913;SDS011;58179;48.776;9.124;2023-11-19T08:47:23;3.78;;;0.90;;
55913;SDS011;58179;48.776;9.124;2023-11-19T08:49:50;2.30;;;1.00;;
55913;SDS011;58179;48.776;9.124;2023-11-19T08:52:17;1.17;;;0.98;;
55913;SDS011;58179;48.776;9.124;2023-11-19T08:54:43;1.02;;;0.90;;
55913;SDS011;58179;48.776;9.124;2023-11-19T08:57:09;1.17;;;0.95;;
55913;SDS011;58179;48.776;9.124;2023-11-19T08:59:35;1.08;;;1.00;;
55913;SDS011;58179;48.776;9.124;2023-11-19T09:02:06;0.95;;;0.95;;
55913;SDS011;58179;48.776;9.124;2023-11-19T09:04:33;4.90;;;1.00;;
55913;SDS011;58179;48.776;9.124;2023-11-19T09:06:59;1.50;;;0.93;;
55913;SDS011;58179;48.776;9.124;2023-11-19T09:09:25;3.10;;;1.00;;
55913;SDS011;58179;48.776;9.124;2023-11-19T09:11:51;1.23;;;0.80;;
55913;SDS011;58179;48.776;9.124;2023-11-19T09:14:18;2.72;;;1.10;;
55913;SDS011;58179;48.776;9.124;2023-11-19T09:16:47;4.20;;;0.85;;
55913;SDS011;58179;48.776;9.124;2023-11-19T09:19:14;1.10;;;0.90;;
55913;SDS011;58179;48.776;9.124;2023-11-19T09:21:42;0.75;;;0.70;;
55913;SDS011;58179;48.776;9.124;2023-11-19T09:24:08;1.40;;;0.90;;
55913;SDS011;58179;48.776;9.124;2023-11-19T09:26:35;1.35;;;0.90;;
55913;SDS011;58179;48.776;9.124;2023-11-19T09:29:01;1.00;;;0.90;;
55913;SDS011;58179;48.776;9.124;2023-11-19T09:31:27;0.93;;;0.90;;
55913;SDS011;58179;48.776;9.124;2023-11-19T09:33:53;0.95;;;0.80;;
55913;SDS011;58179;48.776;9.124;2023-11-19T09:36:21;0.77;;;0.77;;
55913;SDS011;58179;48.776;9.124;2023-11-19T09:38:47;0.70;;;0.70;;
55913;SDS011;58179;48.776;9.124;2023-11-19T09:41:14;0.80;;;0.70;;
55913;SDS011;58179;48.776;9.124;2023-11-19T09:43:40;0.80;;;0.70;;
55913;SDS011;58179;48.776;9.124;2023-11-19T09:46:09;0.70;;;0.70;;
55913;SDS011;58179;48.776;9.124;2023-11-19T09:48:38;0.60;;;0.60;;
55913;SDS011;58179;48.776;9.124;2023-11-19T09:51:07;0.70;;;0.70;;
55913;SDS011;58179;48.776;9.124;2023-11-19T09:53:36;1.10;;;0.60;;
55913;SDS011;58179;48.776;9.124;2023-11-19T09:56:03;1.67;;;0.73;;
55913;SDS011;58179;48.776;9.124;2023-11-19T09:58:30;1.95;;;0.90;;
55913;SDS011;58179;48.776;9.124;2023-11-19T10:00:56;2.80;;;0.80;;
55913;SDS011;58179;48.776;9.124;2023-11-19T10:03:28;0.60;;;0.60;;
55913;SDS011;58179;48.776;9.124;2023-11-19T10:06:00;1.57;;;0.60;;
55913;SDS011;58179;48.776;9.124;2023-11-19T10:08:27;2.30;;;0.70;;
55913;SDS011;58179;48.776;9.124;2023-11-19T10:10:55;0.60;;;0.60;;
55913;SDS011;58179;48.776;9.124;2023-11-19T10:13:25;0.57;;;0.57;;
55913;SDS011;58179;48.776;9.124;2023-11-19T10:15:52;0.70;;;0.70;;
55913;SDS011;58179;48.776;9.124;2023-11-19T10:18:23;2.20;;;0.80;;
55913;SDS011;58179;48.776;9.124;2023-11-19T10:20:51;0.70;;;0.65;;
55913;SDS011;58179;48.776;9.124;2023-11-19T10:23:17;0.80;;;0.80;;
55913;SDS011;58179;48.776;9.124;2023-11-19T10:25:43;1.40;;;0.77;;
55913;SDS011;58179;48.776;9.124;2023-11-19T10:28:11;1.73;;;0.70;;
55913;SDS011;58179;48.776;9.124;2023-11-19T10:30:39;1.37;;;0.70;;
55913;SDS011;58179;48.776;9.124;2023-11-19T10:33:08;1.35;;;0.70;;
55913;SDS011;58179;48.776;9.124;2023-11-19T10:35:35;0.65;;;0.60;;
55913;SDS011;58179;48.776;9.124;2023-11-19T10:38:15;0.60;;;0.60;;
55913;SDS011;58179;48.776;9.124;2023-11-19T10:40:41;0.50;;;0.50;;
55913;SDS011;58179;48.776;9.124;2023-11-19T10:43:07;4.25;;;0.65;;
55913;SDS011;58179;48.776;9.124;2023-11-19T10:45:36;1.20;;;0.60;;
55913;SDS011;58179;48.776;9.124;2023-11-19T10:48:03;1.13;;;0.50;;
55913;SDS011;58179;48.776;9.124;2023-11-19T10:50:33;0.77;;;0.68;;
55913;SDS011;58179;48.776;9.124;2023-11-19T10:53:01;0.98;;;0.50;;
55913;SDS011;58179;48.776;9.124;2023-11-19T10:55:28;0.60;;;0.60;;
55913;SDS011;58179;48.776;9.124;2023-11-19T10:57:59;1.27;;;0.68;;
55913;SDS011;58179;48.776;9.124;2023-11-19T11:00:26;0.77;;;0.60;;
55913;SDS011;58179;48.776;9.124;2023-11-19T11:03:00;2.33;;;0.60;;
55913;SDS011;58179;48.776;9.124;2023-11-19T11:05:27;1.85;;;0.70;;
55913;SDS011;58179;48.776;9.124;2023-11-19T11:07:57;1.08;;;0.60;;
55913;SDS011;58179;48.776;9.124;2023-11-19T11:10:25;1.00;;;0.90;;
55913;SDS011;58179;48.776;9.124;2023-11-19T11:12:53;0.80;;;0.80;;
55913;SDS011;58179;48.776;9.124;2023-11-19T11:15:24;1.67;;;0.70;;
55913;SDS011;58179;48.776;9.124;2023-11-19T11:17:54;1.50;;;0.70;;
55913;SDS011;58179;48.776;9.124;2023-11-19T11:20:25;0.60;;;0.60;;
55913;SDS011;58179;48.776;9.124;2023-11-19T11:22:54;3.47;;;0.90;;
55913;SDS011;58179;48.776;9.124;2023-11-19T11:25:34;2.90;;;0.90;;
55913;SDS011;58179;48.776;9.124;2023-11-19T11:28:20;1.40;;;1.00;;
55913;SDS011;58179;48.776;9.124;2023-11-19T11:30:55;2.70;;;0.90;;
55913;SDS011;58179;48.776;9.124;2023-11-19T11:33:40;1.08;;;0.80;;
55913;SDS011;58179;48.776;9.124;2023-11-19T11:36:22;1.35;;;0.90;;
55913;SDS011;58179;48.776;9.124;2023-11-19T11:38:49;1.05;;;0.70;;
55913;SDS011;58179;48.776;9.124;2023-11-19T11:41:16;3.83;;;1.00;;
55913;SDS011;58179;48.776;9.124;2023-11-19T11:43:46;1.00;;;0.70;;
55913;SDS011;58179;48.776;9.124;2023-11-19T11:49:13;1.10;;;1.00;;
55913;SDS011;58179;48.776;9.124;2023-11-19T11:52:02;0.70;;;0.70;;
55913;SDS011;58179;48.776;9.124;2023-11-19T11:54:29;1.55;;;0.80;;
55913;SDS011;58179;48.776;9.124;2023-11-19T11:57:02;1.10;;;0.60;;
55913;SDS011;58179;48.776;9.124;2023-11-19T11:59:36;0.90;;;0.60;;
55913;SDS011;58179;48.776;9.124;2023-11-19T12:02:13;1.30;;;0.80;;
55913;SDS011;58179;48.776;9.124;2023-11-19T12:04:41;2.03;;;0.70;;
55913;SDS011;58179;48.776;9.124;2023-11-19T12:07:13;0.95;;;0.70;;
55913;SDS011;58179;48.776;9.124;2023-11-19T12:09:41;2.58;;;1.08;;
55913;SDS011;58179;48.776;9.124;2023-11-19T12:12:17;1.90;;;0.90;;
55913;SDS011;58179;48.776;9.124;2023-11-19T12:15:04;1.10;;;0.70;;
55913;SDS011;58179;48.776;9.124;2023-11-19T12:17:42;1.95;;;0.70;;
55913;SDS011;58179;48.776;9.124;2023-11-19T12:20:12;2.03;;;0.80;;
55913;SDS011;58179;48.776;9.124;2023-11-19T12:22:40;1.33;;;0.80;;
55913;SDS011;58179;48.776;9.124;2023-11-19T12:25:07;2.35;;;0.77;;
55913;SDS011;58179;48.776;9.124;2023-11-19T12:27:35;2.00;;;1.00;;
55913;SDS011;58179;48.776;9.124;2023-11-19T12:30:01;2.17;;;0.90;;
55913;SDS011;58179;48.776;9.124;2023-11-19T12:32:37;1.63;;;0.80;;
55913;SDS011;58179;48.776;9.124;2023-11-19T12:35:07;1.05;;;0.60;;
55913;SDS011;58179;48.776;9.124;2023-11-19T12:37:41;0.98;;;0.60;;
55913;SDS011;58179;48.776;9.124;2023-11-19T12:40:12;1.75;;;0.70;;
55913;SDS011;58179;48.776;9.124;2023-11-19T12:42:42;1.60;;;0.80;;
55913;SDS011;58179;48.776;9.124;2023-11-19T12:45:09;2.10;;;0.80;;
55913;SDS011;58179;48.776;9.124;2023-11-19T12:47:38;2.50;;;0.80;;
55913;SDS011;58179;48.776;9.124;2023-11-19T12:50:05;2.70;;;0.88;;
55913;SDS011;58179;48.776;9.124;2023-11-19T12:52:33;2.45;;;0.80;;
55913;SDS011;58179;48.776;9.124;2023-11-19T12:55:01;2.22;;;0.93;;
55913;SDS011;58179;48.776;9.124;2023-11-19T12:57:35;2.92;;;0.80;;
55913;SDS011;58179;48.776;9.124;2023-11-19T13:00:03;1.10;;;0.63;;
55913;SDS011;58179;48.776;9.124;2023-11-19T13:05:24;2.60;;;0.70;;
55913;SDS011;58179;48.776;9.124;2023-11-19T13:07:57;1.83;;;0.90;;
55913;SDS011;58179;48.776;9.124;2023-11-19T13:10:27;2.30;;;0.80;;
55913;SDS011;58179;48.776;9.124;2023-11-19T13:13:00;1.00;;;0.70;;
55913;SDS011;58179;48.776;9.124;2023-11-19T13:15:30;0.80;;;0.70;;
55913;SDS011;58179;48.776;9.124;2023-11-19T13:17:57;1.40;;;0.95;;
55913;SDS011;58179;48.776;9.124;2023-11-19T13:20:23;1.30;;;0.80;;
55913;SDS011;58179;48.776;9.124;2023-11-19T13:22:56;2.33;;;0.90;;
55913;SDS011;58179;48.776;9.124;2023-11-19T13:25:23;1.75;;;0.75;;
55913;SDS011;58179;48.776;9.124;2023-11-19T13:27:50;1.27;;;0.70;;
55913;SDS011;58179;48.776;9.124;2023-11-19T13:30:17;1.35;;;0.90;;
55913;SDS011;58179;48.776;9.124;2023-11-19T13:32:43;0.82;;;0.80;;
55913;SDS011;58179;48.776;9.124;2023-11-19T13:35:11;1.85;;;0.80;;
55913;SDS011;58179;48.776;9.124;2023-11-19T13:37:37;1.38;;;0.80;;
55913;SDS011;58179;48.776;9.124;2023-11-19T13:40:04;2.17;;;0.90;;
55913;SDS011;58179;48.776;9.124;2023-11-19T13:42:32;5.53;;;0.88;;
55913;SDS011;58179;48.776;9.124;2023-11-19T13:45:00;1.90;;;0.90;;
55913;SDS011;58179;48.776;9.124;2023-11-19T13:47:26;4.05;;;0.85;;
55913;SDS011;58179;48.776;9.124;2023-11-19T13:49:52;2.08;;;0.82;;
55913;SDS011;58179;48.776;9.124;2023-11-19T13:52:18;2.05;;;1.05;;
55913;SDS011;58179;48.776;9.124;2023-11-19T13:54:44;3.53;;;1.27;;
55913;SDS011;58179;48.776;9.124;2023-11-19T13:57:10;2.13;;;1.00;;
55913;SDS011;58179;48.776;9.124;2023-11-19T13:59:39;2.13;;;1.20;;
55913;SDS011;58179;48.776;9.124;2023-11-19T14:02:07;1.27;;;0.90;;
55913;SDS011;58179;48.776;9.124;2023-11-19T14:04:33;1.40;;;0.90;;
55913;SDS011;58179;48.776;9.124;2023-11-19T14:06:59;2.08;;;1.50;;
55913;SDS011;58179;48.776;9.124;2023-11-19T14:09:25;1.30;;;0.80;;
55913;SDS011;58179;48.776;9.124;2023-11-19T14:11:51;1.63;;;0.82;;
55913;SDS011;58179;48.776;9.124;2023-11-19T14:14:18;4.18;;;1.00;;
55913;SDS011;58179;48.776;9.124;2023-11-19T14:16:44;1.50;;;0.90;;
55913;SDS011;58179;48.776;9.124;2023-11-19T14:19:12;3.40;;;1.30;;
55913;SDS011;58179;48.776;9.124;2023-11-19T14:21:38;2.30;;;0.90;;
55913;SDS011;58179;48.776;9.124;2023-11-19T14:24:05;2.20;;;0.90;;
55913;SDS011;58179;48.776;9.124;2023-11-19T14:26:31;1.57;;;0.90;;
55913;SDS011;58179;48.776;9.124;2023-11-19T14:28:58;1.60;;;1.00;;
55913;SDS011;58179;48.776;9.124;2023-11-19T14:31:27;4.90;;;1.02;;
55913;SDS011;58179;48.776;9.124;2023-11-19T14:33:54;2.25;;;1.08;;
55913;SDS011;58179;48.776;9.124;2023-11-19T14:36:21;3.80;;;1.30;;
55913;SDS011;58179;48.776;9.124;2023-11-19T14:38:47;6.97;;;1.20;;
55913;SDS011;58179;48.776;9.124;2023-11-19T14:41:14;2.97;;;1.00;;
55913;SDS011;58179;48.776;9.124;2023-11-19T14:43:40;2.42;;;1.10;;
55913;SDS011;58179;48.776;9.124;2023-11-19T14:46:07;2.30;;;1.00;;
55913;SDS011;58179;48.776;9.124;2023-11-19T14:48:33;8.75;;;1.30;;
55913;SDS011;58179;48.776;9.124;2023-11-19T14:51:00;4.33;;;1.50;;
55913;SDS011;58179;48.776;9.124;2023-11-19T14:53:29;2.30;;;1.10;;
55913;SDS011;58179;48.776;9.124;2023-11-19T14:55:55;2.00;;;1.05;;